Time;durP1;ratioP1;P1;durP2;ratioP2;P2;SDS_P1;SDS_P2;PMS_P1;PMS_P2;Temp;Humidity;BMP_temperature;BMP_pressure;BME280_temperature;BME280_humidity;BME280_pressure;Samples;Min_cycle;Max_cycle;Signal;HPM_P1;HPM_P2
2021/01/13 00:00:40;;;;;;;5.88;5.28;;;2.20;99.90;;;;;;5076103;28;20267;-42
2021/01/13 00:03:07;;;;;;;6.18;5.57;;;2.20;99.90;;;;;;5075926;28;20211;-41
2021/01/13 00:05:36;;;;;;;5.63;4.93;;;2.20;99.90;;;;;;5075893;28;20239;-41
2021/01/13 00:08:03;;;;;;;5.57;5.10;;;2.20;99.90;;;;;;5075729;28;20293;-42
2021/01/13 00:10:30;;;;;;;5.53;5.03;;;2.20;99.90;;;;;;5075590;28;20238;-41
2021/01/13 00:12:59;;;;;;;5.20;4.70;;;2.10;99.90;;;;;;5075561;28;20267;-41
2021/01/13 00:15:26;;;;;;;6.70;4.73;;;2.10;99.90;;;;;;5075738;28;20310;-41
2021/01/13 00:17:53;;;;;;;5.97;5.35;;;2.10;99.90;;;;;;5075667;28;20409;-40
2021/01/13 00:20:20;;;;;;;6.22;5.63;;;2.00;99.90;;;;;;5075513;28;20250;-41
2021/01/13 00:22:48;;;;;;;6.03;5.20;;;2.00;99.90;;;;;;5075472;28;20238;-41
2021/01/13 00:25:16;;;;;;;5.83;5.27;;;2.00;99.90;;;;;;5075386;28;20560;-42
2021/01/13 00:27:44;;;;;;;6.53;5.90;;;2.00;99.90;;;;;;5075472;28;20218;-42
2021/01/13 00:30:12;;;;;;;6.00;5.40;;;2.00;99.90;;;;;;5075172;28;20242;-43
2021/01/13 00:32:39;;;;;;;6.70;6.10;;;2.00;99.90;;;;;;5075232;28;20218;-42
2021/01/13 00:35:07;;;;;;;7.17;6.47;;;2.00;99.90;;;;;;5075280;28;20691;-42
2021/01/13 00:37:35;;;;;;;6.17;5.53;;;2.00;99.90;;;;;;5075302;28;20318;-41
2021/01/13 00:40:05;;;;;;;10.70;7.00;;;1.90;99.90;;;;;;5076295;28;20226;-41
2021/01/13 00:42:32;;;;;;;8.00;6.50;;;2.00;99.90;;;;;;5075192;28;20238;-45
2021/01/13 00:44:59;;;;;;;8.00;6.53;;;1.90;99.90;;;;;;5075624;28;20285;-42
2021/01/13 00:47:27;;;;;;;7.23;6.33;;;1.90;99.90;;;;;;5075014;28;20717;-42
2021/01/13 00:49:54;;;;;;;7.85;6.95;;;1.90;99.90;;;;;;5074890;28;20216;-42
2021/01/13 00:52:21;;;;;;;7.27;6.27;;;1.90;99.90;;;;;;5074801;28;20212;-41
2021/01/13 00:54:48;;;;;;;6.87;5.77;;;2.00;99.90;;;;;;5075043;28;20211;-43
2021/01/13 00:57:16;;;;;;;7.13;6.13;;;2.00;99.90;;;;;;5074891;28;20204;-42
2021/01/13 00:59:43;;;;;;;6.63;5.13;;;2.00;99.90;;;;;;5074854;28;20235;-41
2021/01/13 01:02:11;;;;;;;6.00;5.40;;;2.00;99.90;;;;;;5074632;28;20344;-42
2021/01/13 01:04:39;;;;;;;6.60;5.90;;;2.00;99.90;;;;;;5074677;28;20203;-42
2021/01/13 01:07:07;;;;;;;7.07;6.17;;;2.00;99.90;;;;;;5074689;28;20634;-42
2021/01/13 01:09:34;;;;;;;7.10;6.03;;;1.90;99.90;;;;;;5074631;28;20703;-42
2021/01/13 01:12:02;;;;;;;6.20;5.60;;;1.90;99.90;;;;;;5074247;28;20330;-42
2021/01/13 01:14:29;;;;;;;7.23;6.30;;;1.90;99.90;;;;;;5074529;28;20294;-43
2021/01/13 01:16:56;;;;;;;8.73;7.13;;;1.80;99.90;;;;;;5074513;28;20211;-41
2021/01/13 01:19:23;;;;;;;6.30;5.70;;;1.80;99.90;;;;;;5074525;28;20223;-41
2021/01/13 01:21:51;;;;;;;7.93;5.63;;;1.80;99.90;;;;;;5074149;28;20215;-43
2021/01/13 01:24:18;;;;;;;12.83;6.13;;;1.80;99.90;;;;;;5074443;28;20207;-41
2021/01/13 01:26:46;;;;;;;7.20;5.47;;;1.80;99.90;;;;;;5074143;28;20657;-42
2021/01/13 01:29:15;;;;;;;10.90;6.10;;;1.80;99.90;;;;;;5074232;28;20289;-38
2021/01/13 01:31:48;;;;;;;8.00;5.63;;;1.80;99.90;;;;;;5074231;28;20295;-39
2021/01/13 01:34:16;;;;;;;10.60;5.30;;;1.70;99.90;;;;;;5074096;28;20273;-40
2021/01/13 01:36:43;;;;;;;9.43;6.10;;;1.70;99.90;;;;;;5074162;28;20213;-39
2021/01/13 01:39:11;;;;;;;8.30;6.10;;;1.70;99.90;;;;;;5073929;28;20280;-40
2021/01/13 01:41:38;;;;;;;6.67;5.97;;;1.70;99.90;;;;;;5073974;28;20700;-39
2021/01/13 01:44:05;;;;;;;8.30;6.20;;;1.70;99.90;;;;;;5073780;28;20260;-39
2021/01/13 01:46:33;;;;;;;8.60;5.97;;;1.70;99.90;;;;;;5073821;28;20217;-39
2021/01/13 01:49:00;;;;;;;8.17;6.33;;;1.70;99.90;;;;;;5073803;28;20761;-42
2021/01/13 01:51:33;;;;;;;6.93;6.23;;;1.80;99.90;;;;;;5073690;28;20229;-39
2021/01/13 01:54:13;;;;;;;8.00;5.77;;;1.80;99.90;;;;;;5073957;28;20295;-40
2021/01/13 01:56:41;;;;;;;9.47;6.10;;;1.90;99.90;;;;;;5073619;28;20239;-39
2021/01/13 01:59:11;;;;;;;7.23;5.90;;;2.00;99.90;;;;;;5073445;28;20639;-40
2021/01/13 02:01:40;;;;;;;7.00;6.23;;;2.10;99.90;;;;;;5073804;28;20233;-39
2021/01/13 02:04:13;;;;;;;6.33;5.77;;;2.10;99.90;;;;;;5073485;28;20662;-40
2021/01/13 02:07:26;;;;;;;8.73;6.27;;;2.10;99.90;;;;;;5074151;28;20661;-40
2021/01/13 02:09:54;;;;;;;7.37;6.17;;;2.10;99.90;;;;;;5073853;28;20211;-41
2021/01/13 02:12:27;;;;;;;10.47;6.00;;;2.10;99.90;;;;;;5073221;28;20342;-42
2021/01/13 02:14:55;;;;;;;6.63;5.90;;;2.10;99.90;;;;;;5073411;28;20314;-41
2021/01/13 02:17:30;;;;;;;8.20;7.40;;;2.20;99.90;;;;;;5073265;28;20290;-40
2021/01/13 02:20:14;;;;;;;10.63;6.93;;;2.20;99.90;;;;;;5072728;28;20241;-40
2021/01/13 02:23:00;;;;;;;8.33;6.97;;;2.20;99.90;;;;;;5073254;28;20730;-40
2021/01/13 02:26:00;;;;;;;7.50;6.47;;;2.20;99.90;;;;;;5073166;28;20238;-41
2021/01/13 02:28:29;;;;;;;9.37;6.27;;;2.20;99.90;;;;;;5073210;28;20257;-40
2021/01/13 02:31:36;;;;;;;8.20;6.63;;;2.30;99.90;;;;;;5073116;28;20214;-41
2021/01/13 02:34:17;;;;;;;7.20;6.27;;;2.30;99.90;;;;;;5067262;28;20203;-41
2021/01/13 02:37:22;;;;;;;7.87;6.30;;;2.30;99.90;;;;;;5073146;28;20211;-41
2021/01/13 02:39:51;;;;;;;9.07;6.37;;;2.30;99.90;;;;;;5072771;28;20294;-40
2021/01/13 02:42:23;;;;;;;8.10;7.30;;;2.30;99.90;;;;;;5072723;28;20328;-40
2021/01/13 02:45:12;;;;;;;8.90;7.07;;;2.30;99.90;;;;;;5072997;28;20291;-42
2021/01/13 02:48:13;;;;;;;8.60;6.47;;;2.30;99.90;;;;;;5072821;28;20656;-40
2021/01/13 02:50:43;;;;;;;11.30;6.90;;;2.30;99.90;;;;;;5072687;28;20238;-41
2021/01/13 02:53:49;;;;;;;8.27;6.63;;;2.30;99.90;;;;;;5072770;28;20294;-42
2021/01/13 02:56:32;;;;;;;8.60;7.07;;;2.30;99.90;;;;;;5072664;28;20294;-41
2021/01/13 02:59:07;;;;;;;11.77;7.50;;;2.30;99.90;;;;;;5071640;28;20227;-41
2021/01/13 03:01:39;;;;;;;7.70;6.27;;;2.20;99.90;;;;;;5072654;28;20214;-40
2021/01/13 03:04:07;;;;;;;10.60;7.63;;;2.20;99.90;;;;;;5072518;28;20284;-40
2021/01/13 03:06:41;;;;;;;8.80;7.73;;;2.20;99.90;;;;;;5072242;28;20250;-42
2021/01/13 03:09:10;;;;;;;8.13;6.70;;;2.10;99.90;;;;;;5072312;28;20207;-41
2021/01/13 03:11:39;;;;;;;9.67;7.87;;;2.00;99.90;;;;;;5071986;28;20729;-42
2021/01/13 03:14:12;;;;;;;8.17;7.37;;;2.00;99.90;;;;;;5072453;28;20306;-41
2021/01/13 03:16:44;;;;;;;9.93;8.00;;;2.00;99.90;;;;;;5072345;28;20247;-40
2021/01/13 03:19:19;;;;;;;7.80;6.97;;;2.10;99.90;;;;;;5072281;28;20232;-42
2021/01/13 03:21:55;;;;;;;12.37;7.13;;;2.10;99.90;;;;;;5072057;28;20286;-41
2021/01/13 03:24:35;;;;;;;10.63;7.00;;;2.10;99.90;;;;;;5071890;28;20249;-41
2021/01/13 03:27:03;;;;;;;11.47;8.73;;;2.10;99.90;;;;;;5072257;28;20294;-40
2021/01/13 03:29:34;;;;;;;9.30;7.72;;;2.10;99.90;;;;;;5071834;28;20638;-41
2021/01/13 03:32:07;;;;;;;11.53;7.03;;;2.10;99.90;;;;;;5071144;28;20384;-40
2021/01/13 03:34:45;;;;;;;9.23;7.53;;;2.10;99.90;;;;;;5071861;28;20211;-43
2021/01/13 03:37:22;;;;;;;8.60;7.20;;;2.10;99.90;;;;;;5071844;28;20657;-40
2021/01/13 03:39:51;;;;;;;9.17;7.80;;;2.00;99.90;;;;;;5071873;28;20227;-40
2021/01/13 03:42:21;;;;;;;11.40;7.57;;;2.00;99.90;;;;;;5072435;28;20254;-40
2021/01/13 03:44:49;;;;;;;10.20;7.57;;;1.90;99.90;;;;;;5071787;28;20203;-40
2021/01/13 03:47:55;;;;;;;13.15;7.00;;;1.80;99.90;;;;;;5071780;28;20703;-40
2021/01/13 03:50:24;;;;;;;10.43;7.63;;;1.70;99.90;;;;;;5071863;28;20566;-40
2021/01/13 03:52:57;;;;;;;10.75;8.90;;;1.60;99.90;;;;;;5071782;28;20244;-40
2021/01/13 03:55:28;;;;;;;11.70;8.30;;;1.60;99.90;;;;;;5071805;28;20288;-40
2021/01/13 03:58:15;;;;;;;8.57;6.85;;;1.50;99.90;;;;;;5071742;28;20242;-40
2021/01/13 04:00:59;;;;;;;12.27;7.70;;;1.40;99.90;;;;;;5071934;28;20322;-40
2021/01/13 04:03:27;;;;;;;11.57;7.43;;;1.30;99.90;;;;;;5071721;28;20208;-39
2021/01/13 04:06:09;;;;;;;8.70;6.97;;;1.30;99.90;;;;;;5071743;28;20345;-39
2021/01/13 04:08:39;;;;;;;9.30;6.80;;;1.20;99.90;;;;;;5072170;28;20632;-42
2021/01/13 04:11:10;;;;;;;7.30;6.40;;;1.20;99.90;;;;;;5071366;28;20298;-40
2021/01/13 04:13:42;;;;;;;10.97;8.00;;;1.10;99.90;;;;;;5071607;28;20294;-40
2021/01/13 04:16:11;;;;;;;12.63;8.23;;;1.10;99.90;;;;;;5071629;28;20215;-40
2021/01/13 04:18:39;;;;;;;8.53;7.03;;;1.10;99.90;;;;;;5071779;28;20220;-39
2021/01/13 04:21:09;;;;;;;11.83;7.90;;;1.10;99.90;;;;;;5071682;28;20208;-39
2021/01/13 04:23:37;;;;;;;8.30;7.20;;;1.10;99.90;;;;;;5071731;28;20235;-40
2021/01/13 04:26:05;;;;;;;11.60;7.87;;;1.10;99.90;;;;;;5071452;28;20693;-39
2021/01/13 04:28:32;;;;;;;12.43;10.17;;;1.10;99.90;;;;;;5071263;28;20203;-40
2021/01/13 04:31:00;;;;;;;12.60;8.63;;;1.10;99.90;;;;;;5071409;28;20208;-40
2021/01/13 04:33:28;;;;;;;11.55;8.00;;;1.10;99.90;;;;;;5071529;28;20285;-40
2021/01/13 04:35:55;;;;;;;11.33;7.90;;;1.10;99.90;;;;;;5071400;28;20626;-40
2021/01/13 04:38:26;;;;;;;11.17;9.00;;;1.10;99.90;;;;;;5071416;28;20265;-39
2021/01/13 04:41:07;;;;;;;15.50;8.57;;;1.10;99.90;;;;;;5071280;28;20678;-41
2021/01/13 04:43:51;;;;;;;11.83;8.37;;;1.20;99.90;;;;;;5074168;28;20298;-39
2021/01/13 04:46:30;;;;;;;12.20;8.37;;;1.30;99.90;;;;;;5074990;28;20669;-39
2021/01/13 04:49:09;;;;;;;11.50;8.13;;;1.30;99.90;;;;;;5075008;28;20207;-39
2021/01/13 04:51:38;;;;;;;13.93;8.90;;;1.30;99.90;;;;;;5074760;28;20636;-40
2021/01/13 04:54:08;;;;;;;10.27;7.80;;;1.20;99.90;;;;;;5074752;28;20298;-40
2021/01/13 04:56:45;;;;;;;10.77;8.20;;;1.20;99.90;;;;;;5074705;28;20263;-39
2021/01/13 04:59:44;;;;;;;9.53;8.17;;;1.20;99.90;;;;;;5074581;28;20231;-40
2021/01/13 05:02:12;;;;;;;10.80;8.40;;;1.10;99.90;;;;;;5075414;28;20717;-41
2021/01/13 05:04:59;;;;;;;13.80;8.07;;;1.00;99.90;;;;;;5074505;28;20204;-43
2021/01/13 05:07:33;;;;;;;11.63;8.37;;;1.00;99.90;;;;;;5074754;28;20214;-42
2021/01/13 05:10:08;;;;;;;11.67;7.93;;;0.90;99.90;;;;;;5076648;28;20268;-41
2021/01/13 05:12:46;;;;;;;12.80;8.00;;;0.90;99.90;;;;;;5074249;28;20243;-41
2021/01/13 05:15:17;;;;;;;10.93;8.27;;;1.00;99.90;;;;;;5074598;28;20235;-41
2021/01/13 05:18:03;;;;;;;11.43;8.67;;;1.00;99.90;;;;;;5074303;28;20575;-42
2021/01/13 05:20:32;;;;;;;9.77;7.33;;;1.00;99.90;;;;;;5074582;28;20203;-42
2021/01/13 05:23:01;;;;;;;12.83;7.60;;;1.10;99.90;;;;;;5074194;28;20207;-41
2021/01/13 05:25:45;;;;;;;15.73;8.60;;;1.10;99.90;;;;;;5073685;28;20306;-41
2021/01/13 05:28:20;;;;;;;12.50;7.63;;;1.20;99.90;;;;;;5074196;28;20212;-42
2021/01/13 05:30:50;;;;;;;12.00;8.00;;;1.20;99.90;;;;;;5073905;28;20225;-42
2021/01/13 05:33:19;;;;;;;12.70;7.63;;;1.30;99.90;;;;;;5074079;28;20207;-42
2021/01/13 05:35:49;;;;;;;12.63;7.67;;;1.40;99.90;;;;;;5074171;28;20215;-41
2021/01/13 05:38:19;;;;;;;12.53;7.23;;;1.40;99.90;;;;;;5074075;28;20310;-41
2021/01/13 05:40:52;;;;;;;9.87;7.00;;;1.50;99.90;;;;;;5073971;28;20670;-42
2021/01/13 05:43:21;;;;;;;11.27;7.60;;;1.50;99.90;;;;;;5074024;28;20686;-41
2021/01/13 05:45:50;;;;;;;9.45;7.03;;;1.50;99.90;;;;;;5073635;28;20214;-41
2021/01/13 05:48:25;;;;;;;10.82;7.05;;;1.50;99.90;;;;;;5073791;28;20662;-41
2021/01/13 05:50:54;;;;;;;9.77;8.17;;;1.50;99.90;;;;;;5073982;28;20629;-42
2021/01/13 05:53:25;;;;;;;10.83;7.37;;;1.50;99.90;;;;;;5073184;28;20234;-41
2021/01/13 05:55:53;;;;;;;11.45;7.47;;;1.50;99.90;;;;;;5073469;28;20302;-42
2021/01/13 05:58:23;;;;;;;15.43;7.90;;;1.50;99.90;;;;;;5073577;28;20578;-42
2021/01/13 06:00:53;;;;;;;10.10;7.80;;;1.50;99.90;;;;;;5073645;28;20203;-42
2021/01/13 06:03:25;;;;;;;11.43;7.37;;;1.50;99.90;;;;;;5073733;28;20207;-41
2021/01/13 06:05:55;;;;;;;11.45;7.78;;;1.50;99.90;;;;;;5073743;28;20300;-41
2021/01/13 06:08:31;;;;;;;13.10;7.73;;;1.50;99.90;;;;;;5073458;28;20208;-42
2021/01/13 06:11:01;;;;;;;10.77;6.83;;;1.50;99.90;;;;;;5073244;28;20211;-43
2021/01/13 06:13:31;;;;;;;8.90;7.00;;;1.50;99.90;;;;;;5073185;28;20285;-42
2021/01/13 06:16:03;;;;;;;17.15;9.15;;;1.40;99.90;;;;;;5073187;28;20233;-41
2021/01/13 06:18:32;;;;;;;18.53;13.43;;;1.40;99.90;;;;;;5073399;28;20318;-41
2021/01/13 06:21:08;;;;;;;27.60;16.70;;;1.30;99.90;;;;;;5073119;28;20294;-42
2021/01/13 06:23:43;;;;;;;13.43;7.50;;;1.30;99.90;;;;;;5073500;28;20272;-42
2021/01/13 06:26:12;;;;;;;15.07;10.85;;;1.20;99.90;;;;;;5073283;28;20376;-43
2021/01/13 06:29:15;;;;;;;28.83;16.67;;;1.20;99.90;;;;;;5072845;28;20210;-42
2021/01/13 06:31:46;;;;;;;11.87;8.10;;;1.20;99.90;;;;;;5072799;28;20706;-42
2021/01/13 06:34:26;;;;;;;14.83;9.10;;;1.20;99.90;;;;;;5073245;28;20273;-43
2021/01/13 06:37:08;;;;;;;12.37;8.47;;;1.20;99.90;;;;;;5073162;28;20366;-43
2021/01/13 06:39:35;;;;;;;11.40;8.07;;;1.20;99.90;;;;;;5072724;28;20671;-43
2021/01/13 06:42:04;;;;;;;12.15;8.85;;;1.20;99.90;;;;;;5072652;28;20235;-42
2021/01/13 06:44:43;;;;;;;11.27;8.17;;;1.20;99.90;;;;;;5072642;28;20211;-43
2021/01/13 06:47:10;;;;;;;10.83;7.93;;;1.20;99.90;;;;;;5073063;28;20290;-42
2021/01/13 06:49:37;;;;;;;13.33;8.63;;;1.20;99.90;;;;;;5072441;28;20696;-44
2021/01/13 06:52:07;;;;;;;17.17;9.80;;;1.20;99.90;;;;;;5072764;28;20239;-42
2021/01/13 06:54:45;;;;;;;11.70;8.40;;;1.30;99.90;;;;;;5072480;28;20253;-41
2021/01/13 06:57:14;;;;;;;10.13;7.57;;;1.30;99.90;;;;;;5072391;28;20207;-43
2021/01/13 06:59:41;;;;;;;11.48;8.90;;;1.30;99.90;;;;;;5072466;28;20314;-41
2021/01/13 07:02:09;;;;;;;14.57;9.47;;;1.30;99.90;;;;;;5072314;28;20203;-42
2021/01/13 07:04:45;;;;;;;12.70;8.90;;;1.30;99.90;;;;;;5072037;28;20210;-41
2021/01/13 07:07:13;;;;;;;10.83;8.37;;;1.30;99.90;;;;;;5072076;28;20292;-42
2021/01/13 07:09:43;;;;;;;12.73;8.70;;;1.30;99.90;;;;;;5072341;28;20207;-43
2021/01/13 07:12:12;;;;;;;11.23;8.83;;;1.30;99.90;;;;;;5071749;28;20808;-41
2021/01/13 07:14:42;;;;;;;13.20;9.53;;;1.40;99.90;;;;;;5072093;28;20239;-42
2021/01/13 07:17:15;;;;;;;15.30;9.00;;;1.40;99.90;;;;;;5071785;28;20291;-42
2021/01/13 07:19:47;;;;;;;12.80;8.77;;;1.40;99.90;;;;;;5071803;28;20248;-42
2021/01/13 07:22:15;;;;;;;14.73;8.63;;;1.30;99.90;;;;;;5071960;28;20265;-42
2021/01/13 07:24:43;;;;;;;15.87;8.50;;;1.40;99.90;;;;;;5071920;28;20287;-42
2021/01/13 07:27:12;;;;;;;11.77;8.38;;;1.30;99.90;;;;;;5071891;28;20241;-41
2021/01/13 07:29:40;;;;;;;11.80;8.70;;;1.30;99.90;;;;;;5071829;28;20239;-41
2021/01/13 07:32:08;;;;;;;17.50;9.50;;;1.30;99.90;;;;;;5071639;28;20207;-41
2021/01/13 07:34:37;;;;;;;13.93;8.57;;;1.30;99.90;;;;;;5072009;28;20569;-41
2021/01/13 07:37:07;;;;;;;14.10;10.33;;;1.30;99.90;;;;;;5071679;28;20249;-43
2021/01/13 07:40:27;;;;;;;15.03;9.47;;;1.20;99.90;;;;;;5071556;28;20237;-44
2021/01/13 07:43:03;;;;;;;12.03;8.93;;;1.20;99.90;;;;;;5072019;28;20631;-43
2021/01/13 07:45:39;;;;;;;16.03;10.37;;;1.20;99.90;;;;;;5071751;28;20243;-41
2021/01/13 07:48:39;;;;;;;14.52;9.40;;;1.20;99.90;;;;;;5071605;28;20217;-41
2021/01/13 07:51:08;;;;;;;11.43;9.77;;;1.20;99.90;;;;;;5041012;28;20212;-41
2021/01/13 07:53:37;;;;;;;14.97;9.73;;;1.20;99.90;;;;;;5071657;28;20207;-41
2021/01/13 07:56:06;;;;;;;15.10;9.47;;;1.30;99.90;;;;;;5071392;28;20568;-41
2021/01/13 07:58:35;;;;;;;18.87;11.40;;;1.30;99.90;;;;;;5071439;28;20223;-41
2021/01/13 08:01:47;;;;;;;12.00;9.67;;;1.30;99.90;;;;;;5071700;28;20207;-42
2021/01/13 08:05:13;;;;;;;12.87;8.07;;;1.30;99.90;;;;;;5058792;28;20216;-42
2021/01/13 08:07:41;;;;;;;11.90;9.23;;;1.20;99.90;;;;;;5071452;28;20247;-42
2021/01/13 08:10:30;;;;;;;14.70;9.60;;;1.20;99.90;;;;;;5071755;28;20231;-42
2021/01/13 08:13:36;;;;;;;8.93;7.53;;;1.20;99.90;;;;;;5071640;28;20245;-42
2021/01/13 08:16:31;;;;;;;13.27;8.50;;;1.20;99.90;;;;;;5071205;28;20221;-43
2021/01/13 08:19:32;;;;;;;12.80;8.03;;;1.20;99.90;;;;;;5075375;28;20252;-43
2021/01/13 08:22:12;;;;;;;17.97;9.07;;;1.20;99.90;;;;;;5075484;28;20384;-43
2021/01/13 08:24:43;;;;;;;10.67;7.40;;;1.30;99.90;;;;;;5075711;28;20238;-43
2021/01/13 08:27:11;;;;;;;14.20;8.00;;;1.30;99.90;;;;;;5075416;28;20236;-43
2021/01/13 08:29:40;;;;;;;9.70;7.83;;;1.30;99.90;;;;;;5075015;28;20229;-43
2021/01/13 08:32:09;;;;;;;8.83;7.93;;;1.30;99.90;;;;;;5075055;28;20218;-42
2021/01/13 08:34:39;;;;;;;13.53;8.43;;;1.30;99.90;;;;;;5075054;28;20207;-42
2021/01/13 08:37:08;;;;;;;9.67;7.70;;;1.30;99.90;;;;;;5075349;28;20207;-42
2021/01/13 08:39:38;;;;;;;8.13;7.33;;;1.30;99.90;;;;;;5074813;28;20235;-42
2021/01/13 08:42:23;;;;;;;9.87;7.77;;;1.30;99.90;;;;;;5074978;28;20666;-41
2021/01/13 08:44:53;;;;;;;12.77;8.10;;;1.30;99.90;;;;;;5074690;28;20241;-41
2021/01/13 08:47:21;;;;;;;10.07;7.70;;;1.30;99.90;;;;;;5074819;28;20233;-42
2021/01/13 08:49:48;;;;;;;11.83;7.90;;;1.30;99.90;;;;;;5074665;28;20214;-41
2021/01/13 08:52:19;;;;;;;10.27;7.03;;;1.30;99.90;;;;;;5074713;28;20697;-43
2021/01/13 08:55:13;;;;;;;8.07;7.23;;;1.30;99.90;;;;;;5074980;28;20219;-43
2021/01/13 08:57:54;;;;;;;7.40;6.60;;;1.30;99.90;;;;;;5074515;28;20211;-42
2021/01/13 09:00:24;;;;;;;13.27;8.47;;;1.40;99.90;;;;;;5074555;28;20322;-42
2021/01/13 09:03:05;;;;;;;7.35;6.20;;;1.40;99.90;;;;;;5074603;28;20239;-41
2021/01/13 09:05:35;;;;;;;8.67;7.17;;;1.40;99.90;;;;;;5074255;28;20211;-43
2021/01/13 09:08:05;;;;;;;9.80;6.47;;;1.50;99.90;;;;;;5074192;28;20215;-41
2021/01/13 09:10:46;;;;;;;10.90;7.03;;;1.50;99.90;;;;;;5074339;28;20199;-42
2021/01/13 09:13:43;;;;;;;8.63;6.23;;;1.60;99.90;;;;;;5074115;28;20243;-43
2021/01/13 09:16:35;;;;;;;10.00;6.30;;;1.60;99.90;;;;;;5074167;28;20243;-40
2021/01/13 09:19:05;;;;;;;10.70;6.47;;;1.60;99.90;;;;;;5074166;28;20654;-40
2021/01/13 09:21:34;;;;;;;8.23;6.15;;;1.70;99.90;;;;;;5074334;28;20253;-41
2021/01/13 09:24:02;;;;;;;8.07;5.70;;;1.70;99.90;;;;;;5074169;28;20239;-40
2021/01/13 09:26:35;;;;;;;8.83;6.40;;;1.70;99.90;;;;;;5074036;28;20700;-41
2021/01/13 09:29:06;;;;;;;8.53;6.13;;;1.70;99.90;;;;;;5072905;28;20192;-41
2021/01/13 09:31:34;;;;;;;8.00;5.37;;;1.70;99.90;;;;;;5074380;28;20638;-41
2021/01/13 09:34:01;;;;;;;9.13;6.07;;;1.80;99.90;;;;;;5074441;28;20298;-42
2021/01/13 09:36:31;;;;;;;7.63;6.17;;;1.80;99.90;;;;;;5074156;28;20250;-41
2021/01/13 09:39:15;;;;;;;7.63;6.30;;;1.80;99.90;;;;;;5073898;28;20259;-41
2021/01/13 09:41:55;;;;;;;12.60;6.23;;;1.90;99.90;;;;;;5073317;28;20295;-41
2021/01/13 09:44:32;;;;;;;9.13;6.10;;;2.00;99.90;;;;;;5074139;28;20206;-41
2021/01/13 09:47:22;;;;;;;7.33;6.30;;;2.00;99.90;;;;;;5073790;28;20239;-41
2021/01/13 09:49:53;;;;;;;9.63;6.50;;;2.20;99.90;;;;;;5073840;28;20204;-42
2021/01/13 09:52:20;;;;;;;9.00;5.97;;;2.30;99.90;;;;;;5073961;28;20644;-41
2021/01/13 09:54:51;;;;;;;7.93;6.43;;;2.40;99.90;;;;;;5073604;28;20219;-42
2021/01/13 09:57:18;;;;;;;9.47;6.90;;;2.50;99.90;;;;;;5073943;28;20218;-43
2021/01/13 09:59:59;;;;;;;14.77;9.30;;;2.40;99.90;;;;;;5073731;28;20238;-42
2021/01/13 10:02:27;;;;;;;8.25;5.93;;;2.40;99.90;;;;;;5073553;28;20294;-42
2021/01/13 10:04:54;;;;;;;7.83;5.97;;;2.30;99.90;;;;;;5073564;28;20269;-42
2021/01/13 10:07:23;;;;;;;9.00;5.53;;;2.30;99.90;;;;;;5073678;28;20454;-42
2021/01/13 10:09:52;;;;;;;7.10;5.50;;;2.40;99.90;;;;;;5073544;28;20235;-42
2021/01/13 10:12:19;;;;;;;6.93;5.93;;;2.40;99.90;;;;;;5073312;28;20282;-42
2021/01/13 10:15:01;;;;;;;8.87;6.73;;;2.50;99.90;;;;;;5073294;28;20203;-41
2021/01/13 10:17:28;;;;;;;8.40;5.60;;;2.50;99.90;;;;;;5073520;28;20207;-42
2021/01/13 10:20:10;;;;;;;6.17;5.23;;;2.60;99.90;;;;;;5073345;28;20242;-42
2021/01/13 10:22:38;;;;;;;6.60;5.60;;;2.60;99.90;;;;;;5073220;28;20745;-42
2021/01/13 10:25:08;;;;;;;7.13;5.83;;;2.60;99.90;;;;;;5073111;28;20211;-42
2021/01/13 10:27:41;;;;;;;6.40;5.70;;;2.60;99.90;;;;;;5073299;28;20314;-41
2021/01/13 10:30:09;;;;;;;8.68;5.90;;;2.60;99.90;;;;;;5073024;28;20374;-42
2021/01/13 10:32:48;;;;;;;8.03;4.60;;;2.70;99.90;;;;;;5072905;28;20207;-41
2021/01/13 10:35:17;;;;;;;5.43;4.60;;;2.60;99.90;;;;;;5072849;28;20310;-42
2021/01/13 10:37:51;;;;;;;6.93;6.23;;;2.60;99.90;;;;;;5072693;28;20207;-41
2021/01/13 10:40:21;;;;;;;8.17;4.77;;;2.70;99.90;;;;;;5072413;28;20776;-41
2021/01/13 10:42:50;;;;;;;6.57;4.97;;;2.70;99.90;;;;;;5072477;28;20227;-41
2021/01/13 10:45:18;;;;;;;5.83;5.23;;;2.70;99.90;;;;;;5072596;28;20580;-42
2021/01/13 10:47:54;;;;;;;5.07;4.57;;;2.80;99.90;;;;;;5072850;28;20253;-42
2021/01/13 10:50:23;;;;;;;5.80;4.33;;;2.90;99.90;;;;;;5073088;28;20282;-41
2021/01/13 10:52:56;;;;;;;6.05;4.65;;;2.90;99.90;;;;;;5072338;28;20331;-42
2021/01/13 10:55:26;;;;;;;5.63;4.63;;;2.90;99.90;;;;;;5072567;28;20298;-42
2021/01/13 10:57:54;;;;;;;5.00;4.18;;;2.90;99.90;;;;;;5072386;28;20310;-42
2021/01/13 11:00:25;;;;;;;4.03;3.57;;;2.90;99.90;;;;;;5072258;28;20249;-42
2021/01/13 11:02:54;;;;;;;5.97;3.67;;;2.90;99.90;;;;;;5072655;28;20325;-43
2021/01/13 11:05:22;;;;;;;5.50;4.00;;;3.00;99.90;;;;;;5072392;28;20277;-42
2021/01/13 11:07:52;;;;;;;5.87;2.97;;;3.10;99.90;;;;;;5072428;28;20234;-41
2021/01/13 11:10:21;;;;;;;4.73;3.40;;;3.00;99.90;;;;;;5072427;28;20242;-41
2021/01/13 11:12:59;;;;;;;4.90;3.40;;;3.00;99.90;;;;;;5071835;28;20497;-43
2021/01/13 11:15:26;;;;;;;4.83;3.57;;;3.00;99.90;;;;;;5072300;28;20294;-42
2021/01/13 11:17:55;;;;;;;5.63;3.97;;;3.00;99.90;;;;;;5072048;28;20785;-44
2021/01/13 11:20:24;;;;;;;3.80;2.97;;;3.00;99.90;;;;;;5072056;28;20266;-42
2021/01/13 11:22:57;;;;;;;6.63;4.43;;;3.10;99.90;;;;;;5072220;28;20207;-42
2021/01/13 11:25:27;;;;;;;5.23;3.70;;;3.10;99.90;;;;;;5072009;28;20207;-42
2021/01/13 11:27:56;;;;;;;7.33;3.27;;;3.10;99.90;;;;;;5071924;28;20246;-42
2021/01/13 11:30:25;;;;;;;3.88;3.30;;;3.10;99.90;;;;;;5072015;28;20233;-41
2021/01/13 11:32:54;;;;;;;7.10;3.77;;;3.10;99.90;;;;;;5072091;28;20238;-41
2021/01/13 11:35:29;;;;;;;6.53;4.20;;;3.10;99.90;;;;;;5071954;28;20306;-41
2021/01/13 11:38:23;;;;;;;6.10;2.95;;;3.20;99.90;;;;;;5071859;28;20254;-43
2021/01/13 11:41:18;;;;;;;5.13;3.30;;;3.30;99.90;;;;;;5071955;28;20278;-42
2021/01/13 11:44:10;;;;;;;4.03;2.87;;;3.40;99.90;;;;;;5072066;28;20298;-42
2021/01/13 11:46:40;;;;;;;6.30;4.70;;;3.50;99.90;;;;;;5071998;28;20203;-40
2021/01/13 11:49:20;;;;;;;3.30;2.97;;;3.60;99.90;;;;;;5071929;28;20212;-40
2021/01/13 11:51:48;;;;;;;3.67;2.53;;;3.60;99.90;;;;;;5071083;28;20686;-40
2021/01/13 11:54:26;;;;;;;6.87;3.03;;;3.60;99.90;;;;;;5071883;28;20661;-39
2021/01/13 11:56:54;;;;;;;3.53;2.57;;;3.60;99.90;;;;;;5071655;28;20247;-42
2021/01/13 11:59:29;;;;;;;8.73;3.77;;;3.60;99.90;;;;;;5071630;28;20266;-41
2021/01/13 12:01:58;;;;;;;4.60;2.23;;;3.70;99.90;;;;;;5071787;28;20257;-41
2021/01/13 12:04:26;;;;;;;4.87;2.80;;;3.90;99.90;;;;;;5071554;28;20214;-41
2021/01/13 12:06:58;;;;;;;2.97;2.58;;;4.00;99.90;;;;;;5071563;28;20742;-42
2021/01/13 12:09:25;;;;;;;4.03;2.37;;;4.10;99.90;;;;;;5071548;28;20235;-41
2021/01/13 12:11:52;;;;;;;3.73;2.60;;;4.20;99.90;;;;;;5071612;28;20267;-41
2021/01/13 12:14:19;;;;;;;5.43;3.63;;;4.20;99.90;;;;;;5071837;28;20218;-41
2021/01/13 12:16:47;;;;;;;5.57;2.73;;;4.20;99.90;;;;;;5071454;28;20246;-41
2021/01/13 12:19:14;;;;;;;7.27;2.37;;;4.10;99.90;;;;;;5071376;28;20237;-42
2021/01/13 12:21:45;;;;;;;5.47;2.23;;;4.00;99.90;;;;;;5071450;28;20218;-41
2021/01/13 12:24:23;;;;;;;7.00;3.33;;;3.90;99.90;;;;;;5071438;28;20741;-41
2021/01/13 12:26:50;;;;;;;4.07;2.60;;;3.90;99.90;;;;;;5071753;28;20235;-42
2021/01/13 12:29:21;;;;;;;4.53;2.63;;;3.90;99.90;;;;;;5071188;28;20247;-41
2021/01/13 12:31:50;;;;;;;4.53;3.13;;;4.00;99.90;;;;;;5071565;28;20531;-43
2021/01/13 12:34:21;;;;;;;7.30;4.43;;;4.10;99.90;;;;;;5071391;28;20261;-40
2021/01/13 12:36:49;;;;;;;4.97;4.23;;;4.10;99.90;;;;;;5071741;28;20261;-40
2021/01/13 12:39:24;;;;;;;4.90;3.40;;;4.10;99.90;;;;;;5071127;28;20219;-40
2021/01/13 12:41:53;;;;;;;6.10;3.50;;;4.20;99.90;;;;;;5071414;28;20787;-41
2021/01/13 12:44:21;;;;;;;5.50;3.77;;;4.20;99.90;;;;;;5071398;28;20207;-39
2021/01/13 12:46:51;;;;;;;8.10;4.17;;;4.20;99.90;;;;;;5071162;28;20203;-40
2021/01/13 12:49:18;;;;;;;5.43;3.63;;;4.20;99.90;;;;;;5071224;28;20715;-40
2021/01/13 12:51:50;;;;;;;5.20;3.73;;;4.10;99.90;;;;;;5071067;28;20557;-40
2021/01/13 12:54:17;;;;;;;5.80;3.97;;;4.00;99.90;;;;;;5071153;28;20207;-43
2021/01/13 12:56:44;;;;;;;7.80;3.70;;;4.00;99.90;;;;;;5071226;28;20298;-42
2021/01/13 12:59:11;;;;;;;6.07;3.73;;;4.00;99.90;;;;;;5071035;28;20298;-42
2021/01/13 13:01:40;;;;;;;8.45;4.15;;;4.00;99.90;;;;;;5071395;28;20569;-40
2021/01/13 13:04:08;;;;;;;4.33;3.73;;;4.10;99.90;;;;;;5073354;28;20208;-43
2021/01/13 13:06:36;;;;;;;6.43;4.50;;;4.10;99.90;;;;;;5074800;28;20238;-41
2021/01/13 13:09:07;;;;;;;6.10;3.77;;;4.10;99.90;;;;;;5074783;28;20295;-42
2021/01/13 13:11:35;;;;;;;5.57;4.13;;;4.10;99.90;;;;;;5074515;28;20235;-41
2021/01/13 13:14:03;;;;;;;5.87;4.30;;;4.00;99.90;;;;;;5074869;28;20310;-41
2021/01/13 13:16:30;;;;;;;7.63;4.78;;;4.10;99.90;;;;;;5074477;28;20207;-41
2021/01/13 13:18:57;;;;;;;5.90;4.37;;;4.10;99.90;;;;;;5074381;28;20238;-41
2021/01/13 13:21:32;;;;;;;5.20;4.00;;;4.20;99.90;;;;;;5074437;28;20290;-41
2021/01/13 13:24:00;;;;;;;8.13;4.15;;;4.10;99.90;;;;;;5074488;28;20212;-43